sensor_id;sensor_type;location;lat;lon;timestamp;pressure;altitude;pressure_sealevel;temperature;humidity
66945;BME280;53853;51.982;5.928;2024-02-15T00:00:23;101553.88;;;13.51;97.39
66945;BME280;53853;51.982;5.928;2024-02-15T00:02:56;101551.19;;;13.51;97.04
66945;BME280;53853;51.982;5.928;2024-02-15T00:05:26;101555.56;;;13.52;97.19
66945;BME280;53853;51.982;5.928;2024-02-15T00:07:56;101552.88;;;13.52;97.20
66945;BME280;53853;51.982;5.928;2024-02-15T00:10:26;101542.03;;;13.53;97.37
66945;BME280;53853;51.982;5.928;2024-02-15T00:12:56;101548.06;;;13.55;97.46
66945;BME280;53853;51.982;5.928;2024-02-15T00:15:26;101554.41;;;13.54;97.29
66945;BME280;53853;51.982;5.928;2024-02-15T00:17:59;101552.72;;;13.53;97.37
66945;BME280;53853;51.982;5.928;2024-02-15T00:20:30;101557.06;;;13.54;97.35
66945;BME280;53853;51.982;5.928;2024-02-15T00:23:00;101549.91;;;13.55;97.04
66945;BME280;53853;51.982;5.928;2024-02-15T00:25:31;101558.91;;;13.54;97.27
66945;BME280;53853;51.982;5.928;2024-02-15T00:28:01;101559.59;;;13.56;97.28
66945;BME280;53853;51.982;5.928;2024-02-15T00:30:31;101545.91;;;13.59;97.43
66945;BME280;53853;51.982;5.928;2024-02-15T00:33:04;101550.28;;;13.60;97.18
66945;BME280;53853;51.982;5.928;2024-02-15T00:35:34;101552.97;;;13.60;97.23
66945;BME280;53853;51.982;5.928;2024-02-15T00:38:04;101550.28;;;13.60;97.12
66945;BME280;53853;51.982;5.928;2024-02-15T00:40:34;101544.78;;;13.62;97.34
66945;BME280;53853;51.982;5.928;2024-02-15T00:43:04;101547.31;;;13.63;97.44
66945;BME280;53853;51.982;5.928;2024-02-15T00:45:34;101545.59;;;13.62;97.30
66945;BME280;53853;51.982;5.928;2024-02-15T00:48:07;101558.00;;;13.63;97.29
66945;BME280;53853;51.982;5.928;2024-02-15T00:50:37;101555.19;;;13.65;97.40
66945;BME280;53853;51.982;5.928;2024-02-15T00:53:07;101561.69;;;13.62;97.20
66945;BME280;53853;51.982;5.928;2024-02-15T00:55:37;101560.69;;;13.63;97.32
66945;BME280;53853;51.982;5.928;2024-02-15T00:58:06;101565.06;;;13.64;97.37
66945;BME280;53853;51.982;5.928;2024-02-15T01:00:36;101560.69;;;13.63;97.15
66945;BME280;53853;51.982;5.928;2024-02-15T01:03:08;101563.38;;;13.63;97.27
66945;BME280;53853;51.982;5.928;2024-02-15T01:05:38;101563.38;;;13.63;97.30
66945;BME280;53853;51.982;5.928;2024-02-15T01:08:08;101565.06;;;13.64;97.32
66945;BME280;53853;51.982;5.928;2024-02-15T01:10:38;101555.50;;;13.62;97.06
66945;BME280;53853;51.982;5.928;2024-02-15T01:13:08;101551.81;;;13.63;97.25
66945;BME280;53853;51.982;5.928;2024-02-15T01:15:39;101550.66;;;13.65;97.41
66945;BME280;53853;51.982;5.928;2024-02-15T01:18:11;101556.00;;;13.65;97.24
66945;BME280;53853;51.982;5.928;2024-02-15T01:20:41;101547.00;;;13.66;97.12
66945;BME280;53853;51.982;5.928;2024-02-15T01:23:11;101553.19;;;13.67;97.11
66945;BME280;53853;51.982;5.928;2024-02-15T01:25:41;101552.34;;;13.66;97.36
66945;BME280;53853;51.982;5.928;2024-02-15T01:28:12;101552.19;;;13.68;97.22
66945;BME280;53853;51.982;5.928;2024-02-15T01:30:42;101559.09;;;13.70;97.35
66945;BME280;53853;51.982;5.928;2024-02-15T01:33:16;101557.25;;;13.71;97.43
66945;BME280;53853;51.982;5.928;2024-02-15T01:35:46;101551.75;;;13.72;97.49
66945;BME280;53853;51.982;5.928;2024-02-15T01:38:16;101549.91;;;13.73;97.11
66945;BME280;53853;51.982;5.928;2024-02-15T01:40:47;101538.34;;;13.72;97.48
66945;BME280;53853;51.982;5.928;2024-02-15T01:43:17;101540.00;;;13.73;97.26
66945;BME280;53853;51.982;5.928;2024-02-15T01:45:47;101543.56;;;13.74;97.41
66945;BME280;53853;51.982;5.928;2024-02-15T01:48:19;101535.53;;;13.74;97.36
66945;BME280;53853;51.982;5.928;2024-02-15T01:50:49;101532.84;;;13.74;97.51
66945;BME280;53853;51.982;5.928;2024-02-15T01:53:20;101536.34;;;13.74;97.73
66945;BME280;53853;51.982;5.928;2024-02-15T01:55:50;101529.16;;;13.75;97.44
66945;BME280;53853;51.982;5.928;2024-02-15T01:58:22;101538.03;;;13.75;97.86
66945;BME280;53853;51.982;5.928;2024-02-15T02:00:53;101533.66;;;13.74;97.80
66945;BME280;53853;51.982;5.928;2024-02-15T02:03:28;101536.19;;;13.76;97.79
66945;BME280;53853;51.982;5.928;2024-02-15T02:05:57;101538.88;;;13.76;97.76
66945;BME280;53853;51.982;5.928;2024-02-15T02:08:28;101531.69;;;13.76;97.76
66945;BME280;53853;51.982;5.928;2024-02-15T02:10:58;101533.38;;;13.77;97.82
66945;BME280;53853;51.982;5.928;2024-02-15T02:13:28;101537.03;;;13.76;97.67
66945;BME280;53853;51.982;5.928;2024-02-15T02:15:58;101533.53;;;13.76;98.03
66945;BME280;53853;51.982;5.928;2024-02-15T02:18:31;101539.72;;;13.76;97.87
66945;BME280;53853;51.982;5.928;2024-02-15T02:21:01;101533.53;;;13.76;97.93
66945;BME280;53853;51.982;5.928;2024-02-15T02:23:32;101527.03;;;13.79;98.16
66945;BME280;53853;51.982;5.928;2024-02-15T02:26:04;101520.66;;;13.80;97.99
66945;BME280;53853;51.982;5.928;2024-02-15T02:28:36;101517.81;;;13.81;97.96
66945;BME280;53853;51.982;5.928;2024-02-15T02:31:06;101516.00;;;13.82;97.71
66945;BME280;53853;51.982;5.928;2024-02-15T02:33:38;101515.13;;;13.81;97.87
66945;BME280;53853;51.982;5.928;2024-02-15T02:36:08;101513.47;;;13.80;97.70
66945;BME280;53853;51.982;5.928;2024-02-15T02:38:39;101511.78;;;13.79;97.83
66945;BME280;53853;51.982;5.928;2024-02-15T02:41:14;101507.41;;;13.78;97.44
66945;BME280;53853;51.982;5.928;2024-02-15T02:43:45;101511.94;;;13.77;97.42
66945;BME280;53853;51.982;5.928;2024-02-15T02:46:15;101501.53;;;13.74;97.49
66945;BME280;53853;51.982;5.928;2024-02-15T02:48:45;101504.34;;;13.73;97.81
66945;BME280;53853;51.982;5.928;2024-02-15T02:51:16;101500.84;;;13.72;97.51
66945;BME280;53853;51.982;5.928;2024-02-15T02:53:46;101502.69;;;13.72;97.85
66945;BME280;53853;51.982;5.928;2024-02-15T02:56:18;101506.34;;;13.71;97.99
66945;BME280;53853;51.982;5.928;2024-02-15T02:58:48;101502.69;;;13.72;97.90
66945;BME280;53853;51.982;5.928;2024-02-15T03:01:21;101502.84;;;13.70;97.87
66945;BME280;53853;51.982;5.928;2024-02-15T03:03:51;101508.38;;;13.69;97.68
66945;BME280;53853;51.982;5.928;2024-02-15T03:06:22;101503.84;;;13.69;97.90
66945;BME280;53853;51.982;5.928;2024-02-15T03:08:52;101509.19;;;13.69;97.83
66945;BME280;53853;51.982;5.928;2024-02-15T03:11:25;101500.47;;;13.67;98.12
66945;BME280;53853;51.982;5.928;2024-02-15T03:13:55;101505.13;;;13.65;98.19
66945;BME280;53853;51.982;5.928;2024-02-15T03:16:25;101506.97;;;13.65;98.25
66945;BME280;53853;51.982;5.928;2024-02-15T03:18:55;101507.81;;;13.65;98.22
66945;BME280;53853;51.982;5.928;2024-02-15T03:21:26;101490.06;;;13.64;98.11
66945;BME280;53853;51.982;5.928;2024-02-15T03:23:55;101493.72;;;13.63;97.88
66945;BME280;53853;51.982;5.928;2024-02-15T03:26:32;101490.22;;;13.63;97.89
66945;BME280;53853;51.982;5.928;2024-02-15T03:29:03;101487.69;;;13.61;97.91
66945;BME280;53853;51.982;5.928;2024-02-15T03:31:34;101491.38;;;13.60;97.50
66945;BME280;53853;51.982;5.928;2024-02-15T03:34:05;101489.00;;;13.57;97.80
66945;BME280;53853;51.982;5.928;2024-02-15T03:36:37;101482.94;;;13.55;98.05
66945;BME280;53853;51.982;5.928;2024-02-15T03:39:07;101495.47;;;13.54;97.96
66945;BME280;53853;51.982;5.928;2024-02-15T03:41:40;101492.13;;;13.52;97.63
66945;BME280;53853;51.982;5.928;2024-02-15T03:44:12;101492.28;;;13.51;97.34
66945;BME280;53853;51.982;5.928;2024-02-15T03:46:45;101491.28;;;13.52;97.41
66945;BME280;53853;51.982;5.928;2024-02-15T03:49:17;101495.97;;;13.50;97.47
66945;BME280;53853;51.982;5.928;2024-02-15T03:51:48;101504.00;;;13.50;97.56
66945;BME280;53853;51.982;5.928;2024-02-15T03:54:18;101493.59;;;13.47;97.64
66945;BME280;53853;51.982;5.928;2024-02-15T03:56:52;101496.28;;;13.47;97.63
66945;BME280;53853;51.982;5.928;2024-02-15T03:59:24;101486.53;;;13.46;97.44
66945;BME280;53853;51.982;5.928;2024-02-15T04:01:55;101485.88;;;13.44;97.55
66945;BME280;53853;51.982;5.928;2024-02-15T04:04:25;101484.16;;;13.43;97.73
66945;BME280;53853;51.982;5.928;2024-02-15T04:06:56;101481.50;;;13.43;97.45
66945;BME280;53853;51.982;5.928;2024-02-15T04:09:26;101476.13;;;13.43;97.57
66945;BME280;53853;51.982;5.928;2024-02-15T04:11:58;101478.81;;;13.43;97.46
66945;BME280;53853;51.982;5.928;2024-02-15T04:14:28;101479.81;;;13.41;97.74
66945;BME280;53853;51.982;5.928;2024-02-15T04:16:59;101479.13;;;13.39;97.60
66945;BME280;53853;51.982;5.928;2024-02-15T04:19:29;101486.47;;;13.37;97.27
66945;BME280;53853;51.982;5.928;2024-02-15T04:21:59;101476.06;;;13.34;97.39
66945;BME280;53853;51.982;5.928;2024-02-15T04:24:34;101472.84;;;13.31;97.15
66945;BME280;53853;51.982;5.928;2024-02-15T04:27:09;101467.63;;;13.29;97.23
66945;BME280;53853;51.982;5.928;2024-02-15T04:29:40;101467.78;;;13.28;97.35
66945;BME280;53853;51.982;5.928;2024-02-15T04:32:11;101462.28;;;13.29;97.47
66945;BME280;53853;51.982;5.928;2024-02-15T04:34:42;101469.44;;;13.29;97.52
66945;BME280;53853;51.982;5.928;2024-02-15T04:37:13;101465.09;;;13.28;97.52
66945;BME280;53853;51.982;5.928;2024-02-15T04:39:43;101465.94;;;13.28;97.52
66945;BME280;53853;51.982;5.928;2024-02-15T04:42:16;101459.59;;;13.29;98.14
66945;BME280;53853;51.982;5.928;2024-02-15T04:44:46;101459.59;;;13.29;97.95
66945;BME280;53853;51.982;5.928;2024-02-15T04:47:18;101451.56;;;13.29;98.19
66945;BME280;53853;51.982;5.928;2024-02-15T04:49:48;101454.09;;;13.31;98.17
66945;BME280;53853;51.982;5.928;2024-02-15T04:52:18;101452.25;;;13.31;98.11
66945;BME280;53853;51.982;5.928;2024-02-15T04:54:50;101452.41;;;13.30;98.18
66945;BME280;53853;51.982;5.928;2024-02-15T04:57:24;101447.88;;;13.30;98.12
66945;BME280;53853;51.982;5.928;2024-02-15T04:59:55;101455.91;;;13.30;98.34
66945;BME280;53853;51.982;5.928;2024-02-15T05:02:26;101455.06;;;13.30;98.07
66945;BME280;53853;51.982;5.928;2024-02-15T05:04:56;101452.25;;;13.31;98.39
66945;BME280;53853;51.982;5.928;2024-02-15T05:07:26;101450.41;;;13.32;98.31
66945;BME280;53853;51.982;5.928;2024-02-15T05:09:56;101447.59;;;13.33;98.17
66945;BME280;53853;51.982;5.928;2024-02-15T05:12:30;101440.44;;;13.34;98.27
66945;BME280;53853;51.982;5.928;2024-02-15T05:15:00;101436.06;;;13.33;98.32
66945;BME280;53853;51.982;5.928;2024-02-15T05:17:37;101439.16;;;13.28;97.64
66945;BME280;53853;51.982;5.928;2024-02-15T05:20:09;101438.63;;;13.25;98.04
66945;BME280;53853;51.982;5.928;2024-02-15T05:22:42;101442.16;;;13.25;98.27
66945;BME280;53853;51.982;5.928;2024-02-15T05:25:13;101442.97;;;13.26;98.13
66945;BME280;53853;51.982;5.928;2024-02-15T05:27:51;101442.97;;;13.26;98.44
66945;BME280;53853;51.982;5.928;2024-02-15T05:30:21;101444.66;;;13.27;98.25
66945;BME280;53853;51.982;5.928;2024-02-15T05:32:51;101441.84;;;13.28;98.07
66945;BME280;53853;51.982;5.928;2024-02-15T05:35:21;101445.50;;;13.27;98.07
66945;BME280;53853;51.982;5.928;2024-02-15T05:37:51;101450.84;;;13.27;98.07
66945;BME280;53853;51.982;5.928;2024-02-15T05:40:23;101441.84;;;13.28;98.20
66945;BME280;53853;51.982;5.928;2024-02-15T05:42:58;101445.50;;;13.27;98.24
66945;BME280;53853;51.982;5.928;2024-02-15T05:45:30;101449.19;;;13.26;98.37
66945;BME280;53853;51.982;5.928;2024-02-15T05:48:02;101449.03;;;13.28;98.41
66945;BME280;53853;51.982;5.928;2024-02-15T05:50:33;101442.00;;;13.27;98.24
66945;BME280;53853;51.982;5.928;2024-02-15T05:53:04;101437.47;;;13.27;98.19
66945;BME280;53853;51.982;5.928;2024-02-15T05:55:45;101436.66;;;13.27;98.43
66945;BME280;53853;51.982;5.928;2024-02-15T05:58:19;101427.94;;;13.25;98.42
66945;BME280;53853;51.982;5.928;2024-02-15T06:00:49;101426.09;;;13.25;98.52
66945;BME280;53853;51.982;5.928;2024-02-15T06:03:20;101420.72;;;13.25;98.36
66945;BME280;53853;51.982;5.928;2024-02-15T06:05:53;101408.88;;;13.28;98.44
66945;BME280;53853;51.982;5.928;2024-02-15T06:08:25;101394.66;;;13.27;98.30
66945;BME280;53853;51.982;5.928;2024-02-15T06:10:56;101381.41;;;13.26;98.23
66945;BME280;53853;51.982;5.928;2024-02-15T06:13:29;101360.16;;;13.24;98.14
66945;BME280;53853;51.982;5.928;2024-02-15T06:15:59;101344.09;;;13.24;98.22
66945;BME280;53853;51.982;5.928;2024-02-15T06:18:30;101335.38;;;13.22;98.13
66945;BME280;53853;51.982;5.928;2024-02-15T06:21:00;101337.25;;;13.21;98.18
66945;BME280;53853;51.982;5.928;2024-02-15T06:23:32;101353.16;;;13.23;98.23
66945;BME280;53853;51.982;5.928;2024-02-15T06:26:02;101350.63;;;13.21;98.29
66945;BME280;53853;51.982;5.928;2024-02-15T06:28:35;101352.28;;;13.22;98.42
66945;BME280;53853;51.982;5.928;2024-02-15T06:31:18;101364.84;;;13.22;98.24
66945;BME280;53853;51.982;5.928;2024-02-15T06:34:00;101371.88;;;13.23;98.51
66945;BME280;53853;51.982;5.928;2024-02-15T06:36:46;101381.56;;;13.24;98.23
66945;BME280;53853;51.982;5.928;2024-02-15T06:39:29;101379.91;;;13.23;98.21
66945;BME280;53853;51.982;5.928;2024-02-15T06:42:08;101386.09;;;13.23;98.58
66945;BME280;53853;51.982;5.928;2024-02-15T06:44:41;101392.97;;;13.26;98.58
66945;BME280;53853;51.982;5.928;2024-02-15T06:47:11;101401.69;;;13.28;98.24
66945;BME280;53853;51.982;5.928;2024-02-15T06:49:45;101406.06;;;13.29;98.21
66945;BME280;53853;51.982;5.928;2024-02-15T06:52:17;101401.69;;;13.28;98.35
66945;BME280;53853;51.982;5.928;2024-02-15T06:54:47;101404.06;;;13.31;98.47
66945;BME280;53853;51.982;5.928;2024-02-15T06:57:18;101404.91;;;13.32;98.47
66945;BME280;53853;51.982;5.928;2024-02-15T06:59:50;101405.63;;;13.34;98.47
66945;BME280;53853;51.982;5.928;2024-02-15T07:02:20;101406.47;;;13.34;98.14
66945;BME280;53853;51.982;5.928;2024-02-15T07:04:50;101408.13;;;13.35;98.26
66945;BME280;53853;51.982;5.928;2024-02-15T07:07:20;101401.78;;;13.36;98.20
66945;BME280;53853;51.982;5.928;2024-02-15T07:09:50;101397.09;;;13.38;98.10
66945;BME280;53853;51.982;5.928;2024-02-15T07:12:20;101399.63;;;13.40;98.10
66945;BME280;53853;51.982;5.928;2024-02-15T07:14:53;101383.41;;;13.41;98.35
66945;BME280;53853;51.982;5.928;2024-02-15T07:17:23;101377.75;;;13.45;98.38
66945;BME280;53853;51.982;5.928;2024-02-15T07:19:53;101391.84;;;13.47;98.18
66945;BME280;53853;51.982;5.928;2024-02-15T07:22:22;101381.97;;;13.47;98.14
66945;BME280;53853;51.982;5.928;2024-02-15T07:24:52;101395.19;;;13.49;98.23
66945;BME280;53853;51.982;5.928;2024-02-15T07:27:22;101395.06;;;13.50;98.10
66945;BME280;53853;51.982;5.928;2024-02-15T07:29:56;101391.22;;;13.53;98.30
66945;BME280;53853;51.982;5.928;2024-02-15T07:32:26;101400.94;;;13.54;98.27
66945;BME280;53853;51.982;5.928;2024-02-15T07:34:58;101409.78;;;13.54;98.51
66945;BME280;53853;51.982;5.928;2024-02-15T07:37:28;101401.59;;;13.56;98.36
66945;BME280;53853;51.982;5.928;2024-02-15T07:39:57;101407.66;;;13.58;98.50
66945;BME280;53853;51.982;5.928;2024-02-15T07:42:27;101405.66;;;13.60;98.34
66945;BME280;53853;51.982;5.928;2024-02-15T07:45:00;101418.75;;;13.63;98.04
66945;BME280;53853;51.982;5.928;2024-02-15T07:47:33;101415.06;;;13.64;98.25
66945;BME280;53853;51.982;5.928;2024-02-15T07:50:03;101397.00;;;13.66;98.38
66945;BME280;53853;51.982;5.928;2024-02-15T07:52:36;101390.66;;;13.67;98.35
66945;BME280;53853;51.982;5.928;2024-02-15T07:55:07;101400.34;;;13.68;98.28
66945;BME280;53853;51.982;5.928;2024-02-15T07:57:36;101404.06;;;13.67;98.01
66945;BME280;53853;51.982;5.928;2024-02-15T08:00:10;101404.06;;;13.67;98.15
66945;BME280;53853;51.982;5.928;2024-02-15T08:02:43;101406.88;;;13.66;98.33
66945;BME280;53853;51.982;5.928;2024-02-15T08:05:13;101417.59;;;13.66;98.05
66945;BME280;53853;51.982;5.928;2024-02-15T08:07:44;101414.06;;;13.65;98.04
66945;BME280;53853;51.982;5.928;2024-02-15T08:10:14;101422.09;;;13.65;98.09
66945;BME280;53853;51.982;5.928;2024-02-15T08:12:46;101421.25;;;13.65;97.70
66945;BME280;53853;51.982;5.928;2024-02-15T08:15:21;101429.47;;;13.63;97.55
66945;BME280;53853;51.982;5.928;2024-02-15T08:17:54;101428.78;;;13.61;97.80
66945;BME280;53853;51.982;5.928;2024-02-15T08:20:25;101430.44;;;13.62;97.82
66945;BME280;53853;51.982;5.928;2024-02-15T08:22:58;101430.44;;;13.62;97.96
66945;BME280;53853;51.982;5.928;2024-02-15T08:25:28;101430.28;;;13.64;97.61
66945;BME280;53853;51.982;5.928;2024-02-15T08:27:58;101431.97;;;13.65;97.94
66945;BME280;53853;51.982;5.928;2024-02-15T08:30:34;101429.47;;;13.63;97.73
66945;BME280;53853;51.982;5.928;2024-02-15T08:33:04;101432.13;;;13.63;97.81
66945;BME280;53853;51.982;5.928;2024-02-15T08:35:37;101433.97;;;13.63;97.85
66945;BME280;53853;51.982;5.928;2024-02-15T08:38:08;101432.13;;;13.63;98.25
66945;BME280;53853;51.982;5.928;2024-02-15T08:40:38;101440.16;;;13.63;98.01
66945;BME280;53853;51.982;5.928;2024-02-15T08:43:07;101441.72;;;13.66;98.33
66945;BME280;53853;51.982;5.928;2024-02-15T08:45:40;101438.00;;;13.67;98.23
66945;BME280;53853;51.982;5.928;2024-02-15T08:48:10;101449.44;;;13.69;98.46
66945;BME280;53853;51.982;5.928;2024-02-15T08:50:40;101436.88;;;13.69;98.48
66945;BME280;53853;51.982;5.928;2024-02-15T08:53:12;101430.53;;;13.70;98.49
66945;BME280;53853;51.982;5.928;2024-02-15T08:55:42;101413.44;;;13.71;98.02
66945;BME280;53853;51.982;5.928;2024-02-15T08:58:12;101403.75;;;13.70;97.89
66945;BME280;53853;51.982;5.928;2024-02-15T09:00:44;101412.47;;;13.72;97.85
66945;BME280;53853;51.982;5.928;2024-02-15T09:03:14;101405.25;;;13.73;98.01
66945;BME280;53853;51.982;5.928;2024-02-15T09:05:45;101410.44;;;13.74;97.90
66945;BME280;53853;51.982;5.928;2024-02-15T09:08:15;101408.44;;;13.76;98.14
66945;BME280;53853;51.982;5.928;2024-02-15T09:10:48;101411.84;;;13.79;97.69
66945;BME280;53853;51.982;5.928;2024-02-15T09:13:19;101414.81;;;13.75;98.00
66945;BME280;53853;51.982;5.928;2024-02-15T09:15:52;101426.22;;;13.77;98.39
66945;BME280;53853;51.982;5.928;2024-02-15T09:18:21;101429.41;;;13.81;98.41
66945;BME280;53853;51.982;5.928;2024-02-15T09:20:51;101411.53;;;13.82;98.30
66945;BME280;53853;51.982;5.928;2024-02-15T09:23:22;101407.16;;;13.81;98.09
66945;BME280;53853;51.982;5.928;2024-02-15T09:25:53;101407.16;;;13.81;97.80
66945;BME280;53853;51.982;5.928;2024-02-15T09:28:22;101413.50;;;13.80;97.73
66945;BME280;53853;51.982;5.928;2024-02-15T09:30:55;101408.13;;;13.80;97.78
66945;BME280;53853;51.982;5.928;2024-02-15T09:33:26;101413.50;;;13.80;97.72
66945;BME280;53853;51.982;5.928;2024-02-15T09:35:56;101412.50;;;13.81;98.00
66945;BME280;53853;51.982;5.928;2024-02-15T09:38:25;101411.53;;;13.82;97.71
66945;BME280;53853;51.982;5.928;2024-02-15T09:40:55;101411.38;;;13.83;97.83
66945;BME280;53853;51.982;5.928;2024-02-15T09:43:26;101406.69;;;13.85;98.13
66945;BME280;53853;51.982;5.928;2024-02-15T09:45:59;101390.59;;;13.85;97.87
66945;BME280;53853;51.982;5.928;2024-02-15T09:48:32;101393.13;;;13.87;98.07
66945;BME280;53853;51.982;5.928;2024-02-15T09:51:04;101401.84;;;13.89;97.97
66945;BME280;53853;51.982;5.928;2024-02-15T09:53:38;101394.66;;;13.89;98.38
66945;BME280;53853;51.982;5.928;2024-02-15T09:56:08;101393.47;;;13.92;98.29
66945;BME280;53853;51.982;5.928;2024-02-15T09:58:38;101395.19;;;13.93;98.33
66945;BME280;53853;51.982;5.928;2024-02-15T10:01:11;101395.84;;;13.95;98.23
66945;BME280;53853;51.982;5.928;2024-02-15T10:03:42;101394.88;;;13.96;98.31
66945;BME280;53853;51.982;5.928;2024-02-15T10:06:12;101391.88;;;13.99;98.36
66945;BME280;53853;51.982;5.928;2024-02-15T10:08:42;101395.53;;;13.98;98.43
66945;BME280;53853;51.982;5.928;2024-02-15T10:11:14;101387.34;;;14.00;98.32
66945;BME280;53853;51.982;5.928;2024-02-15T10:13:43;101380.13;;;14.00;98.23
66945;BME280;53853;51.982;5.928;2024-02-15T10:16:18;101382.81;;;14.00;98.57
66945;BME280;53853;51.982;5.928;2024-02-15T10:18:52;101387.19;;;14.01;98.61
66945;BME280;53853;51.982;5.928;2024-02-15T10:21:26;101391.25;;;14.05;98.47
66945;BME280;53853;51.982;5.928;2024-02-15T10:24:08;101385.88;;;14.05;97.93
66945;BME280;53853;51.982;5.928;2024-02-15T10:26:38;101388.88;;;14.02;97.79
66945;BME280;53853;51.982;5.928;2024-02-15T10:29:09;101388.00;;;14.02;98.17
66945;BME280;53853;51.982;5.928;2024-02-15T10:31:53;101389.69;;;14.03;98.39
66945;BME280;53853;51.982;5.928;2024-02-15T10:34:24;101388.72;;;14.04;98.40
66945;BME280;53853;51.982;5.928;2024-02-15T10:36:54;101384.69;;;14.08;98.48
66945;BME280;53853;51.982;5.928;2024-02-15T10:39:25;101393.44;;;14.10;98.56
66945;BME280;53853;51.982;5.928;2024-02-15T10:41:55;101391.44;;;14.12;98.24
66945;BME280;53853;51.982;5.928;2024-02-15T10:44:26;101394.78;;;14.14;98.12
66945;BME280;53853;51.982;5.928;2024-02-15T10:46:58;101393.63;;;14.17;97.82
66945;BME280;53853;51.982;5.928;2024-02-15T10:49:35;101389.94;;;14.18;98.05
66945;BME280;53853;51.982;5.928;2024-02-15T10:52:06;101390.63;;;14.20;98.02
66945;BME280;53853;51.982;5.928;2024-02-15T10:54:43;101385.94;;;14.22;97.95
66945;BME280;53853;51.982;5.928;2024-02-15T10:57:21;101382.13;;;14.24;98.25
66945;BME280;53853;51.982;5.928;2024-02-15T10:59:55;101380.25;;;14.25;98.27
66945;BME280;53853;51.982;5.928;2024-02-15T11:02:32;101383.78;;;14.25;98.40
66945;BME280;53853;51.982;5.928;2024-02-15T11:05:06;101387.31;;;14.26;98.53
66945;BME280;53853;51.982;5.928;2024-02-15T11:07:37;101373.75;;;14.27;98.53
66945;BME280;53853;51.982;5.928;2024-02-15T11:10:09;101376.09;;;14.30;98.58
66945;BME280;53853;51.982;5.928;2024-02-15T11:12:44;101371.41;;;14.32;98.92
66945;BME280;53853;51.982;5.928;2024-02-15T11:15:41;101368.94;;;14.39;98.90
66945;BME280;53853;51.982;5.928;2024-02-15T11:18:41;101370.47;;;14.42;98.79
66945;BME280;53853;51.982;5.928;2024-02-15T11:21:11;101363.09;;;14.44;98.82
66945;BME280;53853;51.982;5.928;2024-02-15T11:23:41;101363.59;;;14.47;98.70
66945;BME280;53853;51.982;5.928;2024-02-15T11:26:44;101359.59;;;14.52;98.85
66945;BME280;53853;51.982;5.928;2024-02-15T11:32:00;101355.56;;;14.56;98.39
66945;BME280;53853;51.982;5.928;2024-02-15T11:34:47;101355.81;;;14.62;98.60
66945;BME280;53853;51.982;5.928;2024-02-15T11:40:20;101358.34;;;14.72;99.20
66945;BME280;53853;51.982;5.928;2024-02-15T11:42:53;101361.53;;;14.76;99.32
66945;BME280;53853;51.982;5.928;2024-02-15T11:45:24;101344.94;;;14.80;99.28
66945;BME280;53853;51.982;5.928;2024-02-15T11:47:59;101346.28;;;14.84;99.39
66945;BME280;53853;51.982;5.928;2024-02-15T11:50:34;101339.72;;;14.87;99.30
66945;BME280;53853;51.982;5.928;2024-02-15T11:53:08;101332.19;;;14.91;99.04
66945;BME280;53853;51.982;5.928;2024-02-15T11:55:39;101328.84;;;14.97;99.14
66945;BME280;53853;51.982;5.928;2024-02-15T11:58:09;101329.19;;;15.02;99.42
66945;BME280;53853;51.982;5.928;2024-02-15T12:00:45;101326.84;;;15.07;99.37
66945;BME280;53853;51.982;5.928;2024-02-15T12:03:28;101324.16;;;15.15;100.00
66945;BME280;53853;51.982;5.928;2024-02-15T12:06:17;101312.41;;;15.25;100.00
66945;BME280;53853;51.982;5.928;2024-02-15T12:09:00;101312.41;;;15.33;100.00
66945;BME280;53853;51.982;5.928;2024-02-15T12:11:42;101315.06;;;15.41;99.80
66945;BME280;53853;51.982;5.928;2024-02-15T12:14:24;101302.66;;;15.48;100.00
66945;BME280;53853;51.982;5.928;2024-02-15T12:17:08;101303.63;;;15.55;100.00
66945;BME280;53853;51.982;5.928;2024-02-15T12:19:52;101303.59;;;15.64;100.00
66945;BME280;53853;51.982;5.928;2024-02-15T12:22:26;101308.13;;;15.71;100.00
66945;BME280;53853;51.982;5.928;2024-02-15T12:24:59;101306.63;;;15.77;99.94
66945;BME280;53853;51.982;5.928;2024-02-15T12:27:32;101306.78;;;15.84;100.00
66945;BME280;53853;51.982;5.928;2024-02-15T12:30:02;101307.78;;;15.91;100.00
66945;BME280;53853;51.982;5.928;2024-02-15T12:32:33;101300.84;;;15.97;100.00
66945;BME280;53853;51.982;5.928;2024-02-15T12:35:13;101290.56;;;16.00;99.40
66945;BME280;53853;51.982;5.928;2024-02-15T12:38:01;101288.56;;;16.02;99.02
66945;BME280;53853;51.982;5.928;2024-02-15T12:40:33;101280.81;;;16.07;99.11
66945;BME280;53853;51.982;5.928;2024-02-15T12:43:06;101281.28;;;16.11;98.49
66945;BME280;53853;51.982;5.928;2024-02-15T12:45:37;101268.19;;;16.16;99.01
66945;BME280;53853;51.982;5.928;2024-02-15T12:48:08;101264.09;;;16.20;99.28
66945;BME280;53853;51.982;5.928;2024-02-15T12:50:39;101264.41;;;16.25;99.44
66945;BME280;53853;51.982;5.928;2024-02-15T12:53:11;101262.22;;;16.29;99.62
66945;BME280;53853;51.982;5.928;2024-02-15T12:55:41;101265.22;;;16.34;99.79
66945;BME280;53853;51.982;5.928;2024-02-15T12:58:13;101258.25;;;16.40;99.19
66945;BME280;53853;51.982;5.928;2024-02-15T13:00:44;101260.59;;;16.43;99.37
66945;BME280;53853;51.982;5.928;2024-02-15T13:03:13;101257.56;;;16.46;98.86
66945;BME280;53853;51.982;5.928;2024-02-15T13:05:44;101258.59;;;16.45;97.77
66945;BME280;53853;51.982;5.928;2024-02-15T13:08:18;101258.72;;;16.52;97.66
66945;BME280;53853;51.982;5.928;2024-02-15T13:10:49;101249.94;;;16.58;97.88
66945;BME280;53853;51.982;5.928;2024-02-15T13:13:19;101249.38;;;16.62;98.18
66945;BME280;53853;51.982;5.928;2024-02-15T13:15:49;101250.69;;;16.66;97.96
66945;BME280;53853;51.982;5.928;2024-02-15T13:18:20;101244.94;;;16.70;97.51
66945;BME280;53853;51.982;5.928;2024-02-15T13:20:50;101239.19;;;16.73;97.55